sensor_id;sensor_type;location;lat;lon;timestamp;temperature;humidity
59075;DHT22;44860;53.020;6.738;2022-12-29T00:01:20;10.40;99.90
59075;DHT22;44860;53.020;6.738;2022-12-29T00:03:46;10.50;99.90
59075;DHT22;44860;53.020;6.738;2022-12-29T00:06:12;10.50;99.90
59075;DHT22;44860;53.020;6.738;2022-12-29T00:08:38;10.50;99.90
59075;DHT22;44860;53.020;6.738;2022-12-29T00:11:07;10.50;99.90
59075;DHT22;44860;53.020;6.738;2022-12-29T00:13:34;10.50;99.90
59075;DHT22;44860;53.020;6.738;2022-12-29T00:16:18;10.50;99.90
59075;DHT22;44860;53.020;6.738;2022-12-29T00:18:44;10.50;99.90
59075;DHT22;44860;53.020;6.738;2022-12-29T00:21:21;10.50;99.90
59075;DHT22;44860;53.020;6.738;2022-12-29T00:24:08;10.50;99.90
59075;DHT22;44860;53.020;6.738;2022-12-29T00:29:42;10.50;99.90
59075;DHT22;44860;53.020;6.738;2022-12-29T00:32:26;10.50;99.90
59075;DHT22;44860;53.020;6.738;2022-12-29T00:35:17;10.50;99.90
59075;DHT22;44860;53.020;6.738;2022-12-29T00:37:46;10.50;99.90
59075;DHT22;44860;53.020;6.738;2022-12-29T00:40:31;10.50;99.90
59075;DHT22;44860;53.020;6.738;2022-12-29T00:43:15;10.50;99.90
59075;DHT22;44860;53.020;6.738;2022-12-29T00:46:02;10.50;99.90
59075;DHT22;44860;53.020;6.738;2022-12-29T00:48:27;10.50;99.90
59075;DHT22;44860;53.020;6.738;2022-12-29T00:51:11;10.50;99.90
59075;DHT22;44860;53.020;6.738;2022-12-29T00:53:37;10.50;99.90
59075;DHT22;44860;53.020;6.738;2022-12-29T00:56:03;10.50;99.90
59075;DHT22;44860;53.020;6.738;2022-12-29T00:58:29;10.50;99.90
59075;DHT22;44860;53.020;6.738;2022-12-29T01:03:32;10.50;99.90
59075;DHT22;44860;53.020;6.738;2022-12-29T01:06:05;10.60;99.90
59075;DHT22;44860;53.020;6.738;2022-12-29T01:08:32;10.60;99.90
59075;DHT22;44860;53.020;6.738;2022-12-29T01:11:09;10.60;99.90
59075;DHT22;44860;53.020;6.738;2022-12-29T01:13:36;10.60;99.90
59075;DHT22;44860;53.020;6.738;2022-12-29T01:16:06;10.70;99.90
59075;DHT22;44860;53.020;6.738;2022-12-29T01:18:33;10.70;99.90
59075;DHT22;44860;53.020;6.738;2022-12-29T01:21:06;10.70;99.90
59075;DHT22;44860;53.020;6.738;2022-12-29T01:23:35;10.70;99.90
59075;DHT22;44860;53.020;6.738;2022-12-29T01:26:14;10.70;99.90
59075;DHT22;44860;53.020;6.738;2022-12-29T01:28:41;10.70;99.90
59075;DHT22;44860;53.020;6.738;2022-12-29T01:31:11;10.70;99.90
59075;DHT22;44860;53.020;6.738;2022-12-29T01:33:38;10.70;99.90
59075;DHT22;44860;53.020;6.738;2022-12-29T01:36:06;10.70;99.90
59075;DHT22;44860;53.020;6.738;2022-12-29T01:38:34;10.80;99.90
59075;DHT22;44860;53.020;6.738;2022-12-29T01:41:00;10.70;99.90
59075;DHT22;44860;53.020;6.738;2022-12-29T01:43:43;10.70;99.90
59075;DHT22;44860;53.020;6.738;2022-12-29T01:48:42;10.70;99.90
59075;DHT22;44860;53.020;6.738;2022-12-29T01:51:08;10.70;99.90
59075;DHT22;44860;53.020;6.738;2022-12-29T01:53:36;10.70;99.90
59075;DHT22;44860;53.020;6.738;2022-12-29T01:56:07;10.70;99.90
59075;DHT22;44860;53.020;6.738;2022-12-29T01:58:39;10.70;99.90
59075;DHT22;44860;53.020;6.738;2022-12-29T02:01:07;10.80;99.90
59075;DHT22;44860;53.020;6.738;2022-12-29T02:03:34;10.80;99.90
59075;DHT22;44860;53.020;6.738;2022-12-29T02:08:33;10.80;99.90
59075;DHT22;44860;53.020;6.738;2022-12-29T02:11:00;10.90;99.90
59075;DHT22;44860;53.020;6.738;2022-12-29T02:13:27;10.90;99.90
59075;DHT22;44860;53.020;6.738;2022-12-29T02:24:09;10.90;99.90
59075;DHT22;44860;53.020;6.738;2022-12-29T02:32:42;11.00;99.90
59075;DHT22;44860;53.020;6.738;2022-12-29T02:40:31;11.00;99.90
59075;DHT22;44860;53.020;6.738;2022-12-29T02:43:23;11.00;99.90
59075;DHT22;44860;53.020;6.738;2022-12-29T02:48:46;11.00;99.90
59075;DHT22;44860;53.020;6.738;2022-12-29T02:51:25;11.00;99.90
59075;DHT22;44860;53.020;6.738;2022-12-29T02:53:53;11.00;99.90
59075;DHT22;44860;53.020;6.738;2022-12-29T02:56:38;10.90;99.90
59075;DHT22;44860;53.020;6.738;2022-12-29T02:59:03;10.90;99.90
59075;DHT22;44860;53.020;6.738;2022-12-29T03:05:00;10.90;99.90
59075;DHT22;44860;53.020;6.738;2022-12-29T03:10:41;10.90;99.90
59075;DHT22;44860;53.020;6.738;2022-12-29T03:13:45;10.90;99.90
59075;DHT22;44860;53.020;6.738;2022-12-29T03:16:44;10.90;99.90
59075;DHT22;44860;53.020;6.738;2022-12-29T03:19:30;10.90;99.90
59075;DHT22;44860;53.020;6.738;2022-12-29T03:22:07;10.90;99.90
59075;DHT22;44860;53.020;6.738;2022-12-29T03:24:59;10.90;99.90
59075;DHT22;44860;53.020;6.738;2022-12-29T03:27:33;10.90;99.90
59075;DHT22;44860;53.020;6.738;2022-12-29T03:30:05;10.90;99.90
59075;DHT22;44860;53.020;6.738;2022-12-29T03:32:35;10.90;99.90
59075;DHT22;44860;53.020;6.738;2022-12-29T03:35:02;10.90;99.90
59075;DHT22;44860;53.020;6.738;2022-12-29T03:37:35;10.90;99.90
59075;DHT22;44860;53.020;6.738;2022-12-29T03:40:03;10.90;99.90
59075;DHT22;44860;53.020;6.738;2022-12-29T03:42:32;10.90;99.90
59075;DHT22;44860;53.020;6.738;2022-12-29T03:44:58;10.90;99.90
59075;DHT22;44860;53.020;6.738;2022-12-29T03:47:24;10.90;99.90
59075;DHT22;44860;53.020;6.738;2022-12-29T03:49:50;10.90;99.90
59075;DHT22;44860;53.020;6.738;2022-12-29T03:52:16;10.90;99.90
59075;DHT22;44860;53.020;6.738;2022-12-29T03:54:42;10.90;99.90
59075;DHT22;44860;53.020;6.738;2022-12-29T03:57:09;10.90;99.90
59075;DHT22;44860;53.020;6.738;2022-12-29T03:59:35;10.90;99.90
59075;DHT22;44860;53.020;6.738;2022-12-29T04:02:01;10.80;99.90
59075;DHT22;44860;53.020;6.738;2022-12-29T04:04:27;10.80;99.90
59075;DHT22;44860;53.020;6.738;2022-12-29T04:06:52;10.80;99.90
59075;DHT22;44860;53.020;6.738;2022-12-29T04:09:18;10.80;99.90
59075;DHT22;44860;53.020;6.738;2022-12-29T04:11:43;10.80;99.90
59075;DHT22;44860;53.020;6.738;2022-12-29T04:14:09;10.80;99.90
59075;DHT22;44860;53.020;6.738;2022-12-29T04:16:35;10.80;99.90
59075;DHT22;44860;53.020;6.738;2022-12-29T04:19:02;10.80;99.90
59075;DHT22;44860;53.020;6.738;2022-12-29T04:21:27;10.80;99.90
59075;DHT22;44860;53.020;6.738;2022-12-29T04:23:53;10.80;99.90
59075;DHT22;44860;53.020;6.738;2022-12-29T04:26:19;10.80;99.90
59075;DHT22;44860;53.020;6.738;2022-12-29T04:28:44;10.80;99.90
59075;DHT22;44860;53.020;6.738;2022-12-29T04:31:10;10.70;99.90
59075;DHT22;44860;53.020;6.738;2022-12-29T04:33:36;10.70;99.90
59075;DHT22;44860;53.020;6.738;2022-12-29T04:36:01;10.70;99.90
59075;DHT22;44860;53.020;6.738;2022-12-29T04:38:27;10.70;99.90
59075;DHT22;44860;53.020;6.738;2022-12-29T04:40:53;10.70;99.90
59075;DHT22;44860;53.020;6.738;2022-12-29T04:43:18;10.70;99.90
59075;DHT22;44860;53.020;6.738;2022-12-29T04:45:45;10.60;99.90
59075;DHT22;44860;53.020;6.738;2022-12-29T04:48:12;10.60;99.90
59075;DHT22;44860;53.020;6.738;2022-12-29T04:50:38;10.60;99.90
59075;DHT22;44860;53.020;6.738;2022-12-29T04:53:04;10.50;99.90
59075;DHT22;44860;53.020;6.738;2022-12-29T04:55:29;10.50;99.90
59075;DHT22;44860;53.020;6.738;2022-12-29T04:57:55;10.50;99.90
59075;DHT22;44860;53.020;6.738;2022-12-29T05:00:21;10.40;99.90
59075;DHT22;44860;53.020;6.738;2022-12-29T05:02:47;10.40;99.90
59075;DHT22;44860;53.020;6.738;2022-12-29T05:05:13;10.40;99.90
59075;DHT22;44860;53.020;6.738;2022-12-29T05:07:39;10.40;99.90
59075;DHT22;44860;53.020;6.738;2022-12-29T05:10:06;10.30;99.90
59075;DHT22;44860;53.020;6.738;2022-12-29T05:12:33;10.30;99.90
59075;DHT22;44860;53.020;6.738;2022-12-29T05:14:59;10.30;99.90
59075;DHT22;44860;53.020;6.738;2022-12-29T05:17:25;10.30;99.90
59075;DHT22;44860;53.020;6.738;2022-12-29T05:19:50;10.30;99.90
59075;DHT22;44860;53.020;6.738;2022-12-29T05:22:16;10.30;99.90
59075;DHT22;44860;53.020;6.738;2022-12-29T05:24:42;10.30;99.90
59075;DHT22;44860;53.020;6.738;2022-12-29T05:27:07;10.30;99.90
59075;DHT22;44860;53.020;6.738;2022-12-29T05:29:33;10.30;99.90
59075;DHT22;44860;53.020;6.738;2022-12-29T05:31:59;10.30;99.90
59075;DHT22;44860;53.020;6.738;2022-12-29T05:34:24;10.20;99.90
59075;DHT22;44860;53.020;6.738;2022-12-29T05:36:50;10.30;99.90
59075;DHT22;44860;53.020;6.738;2022-12-29T05:39:16;10.30;99.90
59075;DHT22;44860;53.020;6.738;2022-12-29T05:41:41;10.30;99.90
59075;DHT22;44860;53.020;6.738;2022-12-29T05:44:07;10.20;99.90
59075;DHT22;44860;53.020;6.738;2022-12-29T05:46:33;10.20;99.90
59075;DHT22;44860;53.020;6.738;2022-12-29T05:48:58;10.20;99.90
59075;DHT22;44860;53.020;6.738;2022-12-29T05:51:24;10.10;99.90
59075;DHT22;44860;53.020;6.738;2022-12-29T05:53:50;10.10;99.90
59075;DHT22;44860;53.020;6.738;2022-12-29T05:56:15;10.10;99.90
59075;DHT22;44860;53.020;6.738;2022-12-29T05:58:41;10.10;99.90
59075;DHT22;44860;53.020;6.738;2022-12-29T06:01:07;10.10;99.90
59075;DHT22;44860;53.020;6.738;2022-12-29T06:03:33;10.10;99.90
59075;DHT22;44860;53.020;6.738;2022-12-29T06:05:58;10.10;99.90
59075;DHT22;44860;53.020;6.738;2022-12-29T06:08:24;10.00;99.90
59075;DHT22;44860;53.020;6.738;2022-12-29T06:10:50;10.00;99.90
59075;DHT22;44860;53.020;6.738;2022-12-29T06:13:15;10.10;99.90
59075;DHT22;44860;53.020;6.738;2022-12-29T06:15:41;10.00;99.90
59075;DHT22;44860;53.020;6.738;2022-12-29T06:18:07;10.00;99.90
59075;DHT22;44860;53.020;6.738;2022-12-29T06:20:32;10.00;99.90
59075;DHT22;44860;53.020;6.738;2022-12-29T06:22:58;10.00;99.90
59075;DHT22;44860;53.020;6.738;2022-12-29T06:25:24;10.00;99.90
59075;DHT22;44860;53.020;6.738;2022-12-29T06:27:49;10.00;99.90
59075;DHT22;44860;53.020;6.738;2022-12-29T06:30:15;9.90;99.90
59075;DHT22;44860;53.020;6.738;2022-12-29T06:32:42;9.90;99.90
59075;DHT22;44860;53.020;6.738;2022-12-29T06:35:08;10.00;99.90
59075;DHT22;44860;53.020;6.738;2022-12-29T06:37:34;9.90;99.90
59075;DHT22;44860;53.020;6.738;2022-12-29T06:40:00;10.00;99.90
59075;DHT22;44860;53.020;6.738;2022-12-29T06:42:25;10.00;99.90
59075;DHT22;44860;53.020;6.738;2022-12-29T06:44:51;9.90;99.90
59075;DHT22;44860;53.020;6.738;2022-12-29T06:47:18;9.90;99.90
59075;DHT22;44860;53.020;6.738;2022-12-29T06:49:44;10.00;99.90
59075;DHT22;44860;53.020;6.738;2022-12-29T06:52:10;9.90;99.90
59075;DHT22;44860;53.020;6.738;2022-12-29T06:54:35;10.00;99.90
59075;DHT22;44860;53.020;6.738;2022-12-29T06:57:01;10.00;99.90
59075;DHT22;44860;53.020;6.738;2022-12-29T06:59:27;10.00;99.90
59075;DHT22;44860;53.020;6.738;2022-12-29T07:01:52;9.90;99.90
59075;DHT22;44860;53.020;6.738;2022-12-29T07:04:18;9.90;99.90
59075;DHT22;44860;53.020;6.738;2022-12-29T07:06:44;9.90;99.90
59075;DHT22;44860;53.020;6.738;2022-12-29T07:09:09;9.90;99.90
59075;DHT22;44860;53.020;6.738;2022-12-29T07:11:35;10.00;99.90
59075;DHT22;44860;53.020;6.738;2022-12-29T07:14:02;10.00;99.90
59075;DHT22;44860;53.020;6.738;2022-12-29T07:16:27;10.00;99.90
59075;DHT22;44860;53.020;6.738;2022-12-29T07:18:54;9.90;99.90
59075;DHT22;44860;53.020;6.738;2022-12-29T07:21:20;9.90;99.90
59075;DHT22;44860;53.020;6.738;2022-12-29T07:23:46;9.90;99.90
59075;DHT22;44860;53.020;6.738;2022-12-29T07:26:13;10.00;99.90
59075;DHT22;44860;53.020;6.738;2022-12-29T07:28:40;9.90;99.90
59075;DHT22;44860;53.020;6.738;2022-12-29T07:31:19;9.90;99.90
59075;DHT22;44860;53.020;6.738;2022-12-29T07:33:45;10.00;99.90
59075;DHT22;44860;53.020;6.738;2022-12-29T07:36:11;10.00;99.90
59075;DHT22;44860;53.020;6.738;2022-12-29T07:38:38;9.90;99.90
59075;DHT22;44860;53.020;6.738;2022-12-29T07:41:04;10.00;99.90
59075;DHT22;44860;53.020;6.738;2022-12-29T07:43:30;10.00;99.90
59075;DHT22;44860;53.020;6.738;2022-12-29T07:45:55;10.00;99.90
59075;DHT22;44860;53.020;6.738;2022-12-29T07:48:21;9.90;99.90
59075;DHT22;44860;53.020;6.738;2022-12-29T07:50:47;9.90;99.90
59075;DHT22;44860;53.020;6.738;2022-12-29T07:53:13;9.90;99.90
59075;DHT22;44860;53.020;6.738;2022-12-29T07:55:38;9.90;99.90
59075;DHT22;44860;53.020;6.738;2022-12-29T07:58:04;9.90;99.90
59075;DHT22;44860;53.020;6.738;2022-12-29T08:00:30;10.00;99.90
59075;DHT22;44860;53.020;6.738;2022-12-29T08:02:55;10.00;99.90
59075;DHT22;44860;53.020;6.738;2022-12-29T08:05:21;10.00;99.90
59075;DHT22;44860;53.020;6.738;2022-12-29T08:07:47;10.00;99.90
59075;DHT22;44860;53.020;6.738;2022-12-29T08:10:13;10.00;99.90
59075;DHT22;44860;53.020;6.738;2022-12-29T08:12:40;10.00;99.90
59075;DHT22;44860;53.020;6.738;2022-12-29T08:15:07;9.90;99.90
59075;DHT22;44860;53.020;6.738;2022-12-29T08:17:33;9.90;99.90
59075;DHT22;44860;53.020;6.738;2022-12-29T08:19:59;9.90;99.90
59075;DHT22;44860;53.020;6.738;2022-12-29T08:22:25;9.90;99.90
59075;DHT22;44860;53.020;6.738;2022-12-29T08:24:51;10.00;99.90
59075;DHT22;44860;53.020;6.738;2022-12-29T08:27:17;10.00;99.90
59075;DHT22;44860;53.020;6.738;2022-12-29T08:29:42;10.00;99.90
59075;DHT22;44860;53.020;6.738;2022-12-29T08:32:08;9.90;99.90
59075;DHT22;44860;53.020;6.738;2022-12-29T08:34:34;9.90;99.90
59075;DHT22;44860;53.020;6.738;2022-12-29T08:37:00;9.90;99.90
59075;DHT22;44860;53.020;6.738;2022-12-29T08:39:26;9.90;99.90
59075;DHT22;44860;53.020;6.738;2022-12-29T08:41:51;9.90;99.90
59075;DHT22;44860;53.020;6.738;2022-12-29T08:44:17;9.90;99.90
59075;DHT22;44860;53.020;6.738;2022-12-29T08:46:43;9.90;99.90
59075;DHT22;44860;53.020;6.738;2022-12-29T08:49:08;10.00;99.90
59075;DHT22;44860;53.020;6.738;2022-12-29T08:51:34;10.00;99.90
59075;DHT22;44860;53.020;6.738;2022-12-29T08:54:00;10.00;99.90
59075;DHT22;44860;53.020;6.738;2022-12-29T08:56:26;10.00;99.90
59075;DHT22;44860;53.020;6.738;2022-12-29T08:58:53;10.00;99.90
59075;DHT22;44860;53.020;6.738;2022-12-29T09:01:19;10.10;99.90
59075;DHT22;44860;53.020;6.738;2022-12-29T09:03:45;10.10;99.90
59075;DHT22;44860;53.020;6.738;2022-12-29T09:06:11;10.00;99.90
59075;DHT22;44860;53.020;6.738;2022-12-29T09:08:36;10.10;99.90
59075;DHT22;44860;53.020;6.738;2022-12-29T09:11:13;10.10;99.90
59075;DHT22;44860;53.020;6.738;2022-12-29T09:13:39;10.10;99.90
59075;DHT22;44860;53.020;6.738;2022-12-29T09:16:05;10.10;99.90
59075;DHT22;44860;53.020;6.738;2022-12-29T09:18:31;10.10;99.90
59075;DHT22;44860;53.020;6.738;2022-12-29T09:20:58;10.00;99.90
59075;DHT22;44860;53.020;6.738;2022-12-29T09:23:25;10.00;99.90
59075;DHT22;44860;53.020;6.738;2022-12-29T09:25:51;10.00;99.90
59075;DHT22;44860;53.020;6.738;2022-12-29T09:28:17;10.00;99.90
59075;DHT22;44860;53.020;6.738;2022-12-29T09:30:42;10.00;99.90
59075;DHT22;44860;53.020;6.738;2022-12-29T09:33:08;10.00;99.90
59075;DHT22;44860;53.020;6.738;2022-12-29T09:35:34;9.90;99.90
59075;DHT22;44860;53.020;6.738;2022-12-29T09:37:59;9.80;99.90
59075;DHT22;44860;53.020;6.738;2022-12-29T09:40:28;9.80;99.90
59075;DHT22;44860;53.020;6.738;2022-12-29T09:43:00;9.80;99.90
59075;DHT22;44860;53.020;6.738;2022-12-29T09:45:34;9.80;99.90
59075;DHT22;44860;53.020;6.738;2022-12-29T09:48:04;9.80;99.90
59075;DHT22;44860;53.020;6.738;2022-12-29T09:50:35;9.80;99.90
59075;DHT22;44860;53.020;6.738;2022-12-29T09:53:08;9.80;99.90
59075;DHT22;44860;53.020;6.738;2022-12-29T09:55:39;9.90;99.90
59075;DHT22;44860;53.020;6.738;2022-12-29T09:58:19;9.90;99.90
59075;DHT22;44860;53.020;6.738;2022-12-29T10:01:05;9.90;99.90
59075;DHT22;44860;53.020;6.738;2022-12-29T10:03:46;9.90;99.90
59075;DHT22;44860;53.020;6.738;2022-12-29T10:08:59;10.00;99.90
59075;DHT22;44860;53.020;6.738;2022-12-29T10:14:35;9.90;99.90
59075;DHT22;44860;53.020;6.738;2022-12-29T10:22:19;9.80;99.90
59075;DHT22;44860;53.020;6.738;2022-12-29T10:24:51;9.80;99.90
59075;DHT22;44860;53.020;6.738;2022-12-29T10:27:18;9.80;99.90
59075;DHT22;44860;53.020;6.738;2022-12-29T10:29:49;9.70;99.90
59075;DHT22;44860;53.020;6.738;2022-12-29T10:34:57;9.70;99.90
59075;DHT22;44860;53.020;6.738;2022-12-29T10:40:43;9.60;99.90
59075;DHT22;44860;53.020;6.738;2022-12-29T10:43:28;9.60;99.90
59075;DHT22;44860;53.020;6.738;2022-12-29T10:46:02;9.50;99.90
59075;DHT22;44860;53.020;6.738;2022-12-29T10:48:34;9.50;99.90
59075;DHT22;44860;53.020;6.738;2022-12-29T10:51:02;9.50;99.90
59075;DHT22;44860;53.020;6.738;2022-12-29T10:53:45;9.50;99.90
59075;DHT22;44860;53.020;6.738;2022-12-29T10:56:21;9.40;99.90
59075;DHT22;44860;53.020;6.738;2022-12-29T10:58:51;9.40;99.90
59075;DHT22;44860;53.020;6.738;2022-12-29T11:01:20;9.40;99.90
59075;DHT22;44860;53.020;6.738;2022-12-29T11:04:03;9.40;99.90
59075;DHT22;44860;53.020;6.738;2022-12-29T11:06:29;9.40;99.90
59075;DHT22;44860;53.020;6.738;2022-12-29T11:09:25;9.40;99.90
59075;DHT22;44860;53.020;6.738;2022-12-29T11:11:52;9.30;99.90
59075;DHT22;44860;53.020;6.738;2022-12-29T11:14:21;9.30;99.90
59075;DHT22;44860;53.020;6.738;2022-12-29T11:17:02;9.40;99.90
59075;DHT22;44860;53.020;6.738;2022-12-29T11:19:30;9.30;99.90
59075;DHT22;44860;53.020;6.738;2022-12-29T11:22:29;9.30;99.90
59075;DHT22;44860;53.020;6.738;2022-12-29T11:25:05;9.30;99.90
59075;DHT22;44860;53.020;6.738;2022-12-29T11:27:32;9.30;99.90
59075;DHT22;44860;53.020;6.738;2022-12-29T11:29:58;9.20;99.90
59075;DHT22;44860;53.020;6.738;2022-12-29T11:32:26;9.20;99.90
59075;DHT22;44860;53.020;6.738;2022-12-29T11:34:52;9.20;99.90
59075;DHT22;44860;53.020;6.738;2022-12-29T11:37:22;9.20;99.90
59075;DHT22;44860;53.020;6.738;2022-12-29T11:40:02;9.20;99.90
59075;DHT22;44860;53.020;6.738;2022-12-29T11:42:43;9.20;99.90
59075;DHT22;44860;53.020;6.738;2022-12-29T11:48:07;9.20;99.90
59075;DHT22;44860;53.020;6.738;2022-12-29T11:50:38;9.20;99.90
59075;DHT22;44860;53.020;6.738;2022-12-29T11:55:59;9.20;99.90
59075;DHT22;44860;53.020;6.738;2022-12-29T11:58:34;9.20;99.90
59075;DHT22;44860;53.020;6.738;2022-12-29T12:01:21;9.20;99.90
59075;DHT22;44860;53.020;6.738;2022-12-29T12:04:13;9.20;99.90
59075;DHT22;44860;53.020;6.738;2022-12-29T12:09:37;9.20;99.90
59075;DHT22;44860;53.020;6.738;2022-12-29T12:12:05;9.30;99.90
59075;DHT22;44860;53.020;6.738;2022-12-29T12:14:38;9.30;99.90
59075;DHT22;44860;53.020;6.738;2022-12-29T12:17:10;9.30;99.90
59075;DHT22;44860;53.020;6.738;2022-12-29T12:19:48;9.40;99.90
59075;DHT22;44860;53.020;6.738;2022-12-29T12:27:39;9.50;99.90
59075;DHT22;44860;53.020;6.738;2022-12-29T12:30:18;9.50;99.90
59075;DHT22;44860;53.020;6.738;2022-12-29T12:33:06;9.50;99.90
59075;DHT22;44860;53.020;6.738;2022-12-29T12:35:43;9.50;99.90
59075;DHT22;44860;53.020;6.738;2022-12-29T13:08:13;9.70;99.90
59075;DHT22;44860;53.020;6.738;2022-12-29T13:11:02;9.70;99.90
59075;DHT22;44860;53.020;6.738;2022-12-29T13:17:13;9.70;99.90
59075;DHT22;44860;53.020;6.738;2022-12-29T13:19:14;9.70;99.90
59075;DHT22;44860;53.020;6.738;2022-12-29T13:22:06;9.70;99.90
59075;DHT22;44860;53.020;6.738;2022-12-29T13:27:29;9.80;99.90
59075;DHT22;44860;53.020;6.738;2022-12-29T13:30:10;9.80;99.90
59075;DHT22;44860;53.020;6.738;2022-12-29T13:35:23;9.80;99.90
59075;DHT22;44860;53.020;6.738;2022-12-29T13:38:16;9.80;99.90
59075;DHT22;44860;53.020;6.738;2022-12-29T13:40:46;9.80;99.90
59075;DHT22;44860;53.020;6.738;2022-12-29T13:43:14;9.80;99.90
59075;DHT22;44860;53.020;6.738;2022-12-29T13:45:42;9.80;99.90
59075;DHT22;44860;53.020;6.738;2022-12-29T13:48:25;9.70;99.90
59075;DHT22;44860;53.020;6.738;2022-12-29T13:50:58;9.70;99.90
59075;DHT22;44860;53.020;6.738;2022-12-29T13:56:19;9.70;99.90
59075;DHT22;44860;53.020;6.738;2022-12-29T14:02:11;9.80;99.90
59075;DHT22;44860;53.020;6.738;2022-12-29T14:04:24;9.70;99.90
59075;DHT22;44860;53.020;6.738;2022-12-29T14:07:16;9.80;99.90
59075;DHT22;44860;53.020;6.738;2022-12-29T14:09:47;9.70;99.90
59075;DHT22;44860;53.020;6.738;2022-12-29T14:15:23;9.70;99.90
59075;DHT22;44860;53.020;6.738;2022-12-29T14:18:22;9.70;99.90
59075;DHT22;44860;53.020;6.738;2022-12-29T14:21:03;9.70;99.90
59075;DHT22;44860;53.020;6.738;2022-12-29T14:23:46;9.70;99.90
59075;DHT22;44860;53.020;6.738;2022-12-29T14:28:56;9.60;99.90
59075;DHT22;44860;53.020;6.738;2022-12-29T14:31:34;9.60;99.90
59075;DHT22;44860;53.020;6.738;2022-12-29T14:44:51;9.40;99.90
59075;DHT22;44860;53.020;6.738;2022-12-29T14:47:26;9.40;99.90
59075;DHT22;44860;53.020;6.738;2022-12-29T14:55:41;9.40;99.90
59075;DHT22;44860;53.020;6.738;2022-12-29T14:58:27;9.40;99.90
59075;DHT22;44860;53.020;6.738;2022-12-29T15:00:54;9.30;99.90
59075;DHT22;44860;53.020;6.738;2022-12-29T15:03:29;9.30;99.90
59075;DHT22;44860;53.020;6.738;2022-12-29T15:08:37;9.30;99.90
59075;DHT22;44860;53.020;6.738;2022-12-29T15:13:47;9.20;99.90
59075;DHT22;44860;53.020;6.738;2022-12-29T15:16:26;9.20;99.90
59075;DHT22;44860;53.020;6.738;2022-12-29T15:18:54;9.20;99.90
59075;DHT22;44860;53.020;6.738;2022-12-29T15:21:27;9.20;99.90
59075;DHT22;44860;53.020;6.738;2022-12-29T15:23:56;9.10;99.90
59075;DHT22;44860;53.020;6.738;2022-12-29T15:26:23;9.10;99.90
59075;DHT22;44860;53.020;6.738;2022-12-29T15:28:52;9.10;99.90
59075;DHT22;44860;53.020;6.738;2022-12-29T15:31:26;9.10;99.90
59075;DHT22;44860;53.020;6.738;2022-12-29T15:33:53;9.00;99.90
59075;DHT22;44860;53.020;6.738;2022-12-29T15:36:21;9.00;99.90
59075;DHT22;44860;53.020;6.738;2022-12-29T15:38:48;9.00;99.90
59075;DHT22;44860;53.020;6.738;2022-12-29T15:44:29;8.90;99.90
59075;DHT22;44860;53.020;6.738;2022-12-29T15:47:04;8.90;99.90
59075;DHT22;44860;53.020;6.738;2022-12-29T15:49:30;8.90;99.90
59075;DHT22;44860;53.020;6.738;2022-12-29T15:51:55;8.90;99.90
59075;DHT22;44860;53.020;6.738;2022-12-29T15:54:22;8.90;99.90
59075;DHT22;44860;53.020;6.738;2022-12-29T15:56:49;8.90;99.90
59075;DHT22;44860;53.020;6.738;2022-12-29T16:01:57;8.90;99.90
59075;DHT22;44860;53.020;6.738;2022-12-29T16:04:27;8.80;99.90
59075;DHT22;44860;53.020;6.738;2022-12-29T16:07:00;8.90;99.90
59075;DHT22;44860;53.020;6.738;2022-12-29T16:09:34;8.80;99.90
59075;DHT22;44860;53.020;6.738;2022-12-29T16:12:05;8.80;99.90
59075;DHT22;44860;53.020;6.738;2022-12-29T16:14:39;8.80;99.90
59075;DHT22;44860;53.020;6.738;2022-12-29T16:17:05;8.80;99.90
59075;DHT22;44860;53.020;6.738;2022-12-29T16:19:39;8.80;99.90
59075;DHT22;44860;53.020;6.738;2022-12-29T16:22:17;8.80;99.90
59075;DHT22;44860;53.020;6.738;2022-12-29T16:24:46;8.80;99.90
59075;DHT22;44860;53.020;6.738;2022-12-29T16:27:48;8.80;99.90
59075;DHT22;44860;53.020;6.738;2022-12-29T16:30:28;8.80;99.90
59075;DHT22;44860;53.020;6.738;2022-12-29T16:32:56;8.80;99.90
59075;DHT22;44860;53.020;6.738;2022-12-29T16:38:16;8.90;99.90
59075;DHT22;44860;53.020;6.738;2022-12-29T16:40:58;8.90;99.90
59075;DHT22;44860;53.020;6.738;2022-12-29T16:43:35;8.90;99.90
59075;DHT22;44860;53.020;6.738;2022-12-29T16:46:36;8.90;99.90
59075;DHT22;44860;53.020;6.738;2022-12-29T16:49:03;8.90;99.90
59075;DHT22;44860;53.020;6.738;2022-12-29T16:51:32;8.90;99.90
59075;DHT22;44860;53.020;6.738;2022-12-29T16:53:59;8.90;99.90
59075;DHT22;44860;53.020;6.738;2022-12-29T16:56:28;8.90;99.90
59075;DHT22;44860;53.020;6.738;2022-12-29T16:59:06;8.90;99.90
59075;DHT22;44860;53.020;6.738;2022-12-29T17:01:39;8.90;99.90
59075;DHT22;44860;53.020;6.738;2022-12-29T17:04:07;8.80;99.90
59075;DHT22;44860;53.020;6.738;2022-12-29T17:06:33;8.70;99.90
59075;DHT22;44860;53.020;6.738;2022-12-29T17:08:59;8.70;99.90
59075;DHT22;44860;53.020;6.738;2022-12-29T17:11:32;8.60;99.90
59075;DHT22;44860;53.020;6.738;2022-12-29T17:14:38;8.60;99.90
59075;DHT22;44860;53.020;6.738;2022-12-29T17:17:16;8.50;99.90
59075;DHT22;44860;53.020;6.738;2022-12-29T17:19:48;8.40;99.90
59075;DHT22;44860;53.020;6.738;2022-12-29T17:22:26;8.40;99.90
59075;DHT22;44860;53.020;6.738;2022-12-29T17:24:54;8.40;99.90
59075;DHT22;44860;53.020;6.738;2022-12-29T17:30:00;8.30;99.90
59075;DHT22;44860;53.020;6.738;2022-12-29T17:32:28;8.20;99.90
59075;DHT22;44860;53.020;6.738;2022-12-29T17:34:54;8.20;99.90
59075;DHT22;44860;53.020;6.738;2022-12-29T17:39:48;8.20;99.90
59075;DHT22;44860;53.020;6.738;2022-12-29T17:42:14;8.20;99.90
59075;DHT22;44860;53.020;6.738;2022-12-29T17:44:41;8.10;99.90
59075;DHT22;44860;53.020;6.738;2022-12-29T17:47:10;8.10;99.90
59075;DHT22;44860;53.020;6.738;2022-12-29T17:49:36;8.10;99.90
59075;DHT22;44860;53.020;6.738;2022-12-29T17:52:02;8.10;99.90
59075;DHT22;44860;53.020;6.738;2022-12-29T17:54:29;8.00;99.90
59075;DHT22;44860;53.020;6.738;2022-12-29T17:56:56;8.00;99.90
59075;DHT22;44860;53.020;6.738;2022-12-29T17:59:21;8.00;99.90
59075;DHT22;44860;53.020;6.738;2022-12-29T18:01:48;8.00;99.90
59075;DHT22;44860;53.020;6.738;2022-12-29T18:04:16;8.00;99.90
59075;DHT22;44860;53.020;6.738;2022-12-29T18:06:42;8.00;99.90
59075;DHT22;44860;53.020;6.738;2022-12-29T18:09:08;8.00;99.90
59075;DHT22;44860;53.020;6.738;2022-12-29T18:11:40;8.00;99.90
59075;DHT22;44860;53.020;6.738;2022-12-29T18:14:16;8.00;99.90
59075;DHT22;44860;53.020;6.738;2022-12-29T18:16:42;8.00;99.90
59075;DHT22;44860;53.020;6.738;2022-12-29T18:19:08;8.00;99.90
59075;DHT22;44860;53.020;6.738;2022-12-29T18:21:35;8.00;99.90
59075;DHT22;44860;53.020;6.738;2022-12-29T18:24:01;8.00;99.90
59075;DHT22;44860;53.020;6.738;2022-12-29T18:26:28;8.00;99.90
59075;DHT22;44860;53.020;6.738;2022-12-29T18:28:57;8.00;99.90
59075;DHT22;44860;53.020;6.738;2022-12-29T18:31:25;8.10;99.90
59075;DHT22;44860;53.020;6.738;2022-12-29T18:33:52;8.20;99.90